Time;durP1;ratioP1;P1;durP2;ratioP2;P2;SDS_P1;SDS_P2;PMS_P1;PMS_P2;Temp;Humidity;BMP_temperature;BMP_pressure;BME280_temperature;BME280_humidity;BME280_pressure;Samples;Min_cycle;Max_cycle;Signal;HPM_P1;HPM_P2
2022/03/17 00:00:29;;;;;;;21.60;13.52;;;10.70;99.90;;;;;;5049491;28;20036;-69
2022/03/17 00:02:55;;;;;;;25.97;13.33;;;10.70;99.90;;;;;;5054646;28;20052;-69
2022/03/17 00:05:20;;;;;;;25.70;12.93;;;10.70;99.90;;;;;;5050455;28;20041;-69
2022/03/17 00:07:46;;;;;;;21.80;12.33;;;10.60;99.90;;;;;;5054508;28;20040;-69
2022/03/17 00:10:14;;;;;;;22.90;13.93;;;10.70;99.90;;;;;;5056973;28;20481;-70
2022/03/17 00:12:41;;;;;;;22.73;12.38;;;10.70;99.90;;;;;;5055885;28;20040;-69
2022/03/17 00:15:10;;;;;;;23.58;13.95;;;10.70;99.90;;;;;;5056466;28;20045;-70
2022/03/17 00:21:39;;;;;;;24.05;13.20;;;10.60;99.90;;;;;;5009077;22;20052;-69
2022/03/17 00:24:09;;;;;;;25.48;13.23;;;10.60;99.90;;;;;;5048037;28;20119;-70
2022/03/17 00:26:36;;;;;;;25.92;13.15;;;10.60;99.90;;;;;;5074210;28;20074;-70
2022/03/17 00:29:03;;;;;;;25.25;13.98;;;10.60;99.90;;;;;;5083130;28;20044;-70
2022/03/17 00:31:29;;;;;;;26.63;13.15;;;10.60;99.90;;;;;;5099913;28;20074;-69
2022/03/17 00:33:59;;;;;;;25.42;13.90;;;10.60;99.90;;;;;;5063658;28;20035;-69
2022/03/17 00:36:25;;;;;;;26.23;13.20;;;10.60;99.90;;;;;;5083254;28;20079;-70
2022/03/17 00:38:50;;;;;;;25.15;13.52;;;10.60;99.90;;;;;;5075530;28;20445;-70
2022/03/17 00:41:16;;;;;;;24.27;13.98;;;10.60;99.90;;;;;;5075874;28;20052;-70
2022/03/17 00:43:43;;;;;;;27.17;13.88;;;10.60;99.90;;;;;;5047317;28;20494;-69
2022/03/17 00:46:09;;;;;;;25.38;14.30;;;10.60;99.90;;;;;;5071794;28;20098;-69
2022/03/17 00:48:35;;;;;;;23.50;13.48;;;10.60;99.90;;;;;;5038560;28;20244;-69
2022/03/17 00:51:01;;;;;;;26.83;12.82;;;10.60;99.90;;;;;;5033200;28;20059;-69
2022/03/17 00:53:27;;;;;;;25.95;13.73;;;10.50;99.90;;;;;;5076545;28;20575;-69
2022/03/17 00:55:56;;;;;;;24.67;13.00;;;10.50;99.90;;;;;;5028174;28;20574;-69
2022/03/17 00:58:22;;;;;;;23.15;13.43;;;10.60;99.90;;;;;;5069982;28;20475;-68
2022/03/17 01:00:49;;;;;;;29.77;13.93;;;10.50;99.90;;;;;;5060537;28;20067;-68
2022/03/17 01:03:15;;;;;;;24.33;14.43;;;10.50;99.90;;;;;;5012759;28;20356;-68
2022/03/17 01:05:41;;;;;;;23.60;13.35;;;10.50;99.90;;;;;;5073508;28;20106;-69
2022/03/17 01:08:08;;;;;;;;;;;10.50;99.90;;;;;;5075297;28;20504;-69
2022/03/17 01:10:34;;;;;;;22.48;12.65;;;10.50;99.90;;;;;;5085486;28;19920;-69
2022/03/17 01:13:03;;;;;;;22.95;13.55;;;10.60;99.90;;;;;;5073959;28;20480;-69
2022/03/17 01:15:30;;;;;;;25.75;13.45;;;10.60;99.90;;;;;;5053910;28;20329;-68
2022/03/17 01:17:57;;;;;;;23.00;13.35;;;10.60;99.90;;;;;;5010933;28;20375;-68
2022/03/17 01:20:26;;;;;;;22.83;13.13;;;10.60;99.90;;;;;;5015357;28;20152;-67
2022/03/17 01:22:52;;;;;;;23.33;12.93;;;10.60;99.90;;;;;;4993954;28;20435;-67
2022/03/17 01:25:18;;;;;;;23.40;13.60;;;10.60;99.90;;;;;;5062859;28;20054;-68
2022/03/17 01:27:45;;;;;;;26.58;13.80;;;10.60;99.90;;;;;;5049080;28;20039;-68
2022/03/17 01:30:11;;;;;;;23.25;13.30;;;10.60;99.90;;;;;;5002612;28;20075;-68
2022/03/17 01:32:38;;;;;;;20.52;12.45;;;10.60;99.90;;;;;;5024625;22;20345;-71
2022/03/17 01:35:06;;;;;;;;;;;10.60;99.90;;;;;;5068248;28;20555;-67
2022/03/17 01:37:32;;;;;;;;;;;10.60;99.90;;;;;;5078463;28;19966;-70
2022/03/17 01:39:58;;;;;;;23.88;12.77;;;10.60;99.90;;;;;;5084259;28;20443;-72
2022/03/17 01:42:24;;;;;;;23.60;12.93;;;10.70;99.90;;;;;;5084417;28;20358;-68
2022/03/17 01:44:50;;;;;;;26.35;14.90;;;10.60;99.90;;;;;;5061795;28;20392;-69
2022/03/17 01:47:29;;;;;;;25.67;14.05;;;10.60;99.90;;;;;;5077680;28;20511;-69
2022/03/17 01:50:10;;;;;;;24.00;14.30;;;10.60;99.90;;;;;;4993914;28;20626;-69
2022/03/17 01:52:36;;;;;;;24.00;13.30;;;10.60;99.90;;;;;;5051557;28;20042;-68
2022/03/17 01:55:03;;;;;;;28.40;15.40;;;10.70;99.90;;;;;;5071803;28;20055;-69
2022/03/17 01:57:29;;;;;;;28.23;15.93;;;10.60;99.90;;;;;;5066764;28;20508;-68
2022/03/17 01:59:54;;;;;;;23.13;13.93;;;10.60;99.90;;;;;;5076833;28;20059;-69
2022/03/17 02:02:20;;;;;;;24.13;14.32;;;10.60;99.90;;;;;;5076735;28;20283;-69
2022/03/17 02:04:47;;;;;;;24.55;15.20;;;10.60;99.90;;;;;;5070787;28;20404;-69
2022/03/17 02:07:14;;;;;;;25.45;15.15;;;10.50;99.90;;;;;;5090526;28;20090;-69
2022/03/17 02:09:42;;;;;;;27.75;14.95;;;10.50;99.90;;;;;;5095557;28;20035;-69
2022/03/17 02:14:55;;;;;;;31.67;15.52;;;10.40;99.90;;;;;;5093834;28;20036;-69
2022/03/17 02:17:22;;;;;;;24.83;14.35;;;10.40;99.90;;;;;;5069067;28;20059;-69
2022/03/17 02:19:48;;;;;;;27.88;15.00;;;10.40;99.90;;;;;;5088103;28;20349;-69
2022/03/17 02:22:17;;;;;;;28.02;16.48;;;10.40;99.90;;;;;;5072963;28;20047;-69
2022/03/17 02:27:30;;;;;;;26.13;14.93;;;10.40;99.90;;;;;;5083302;28;20056;-69
2022/03/17 02:29:56;;;;;;;27.80;16.35;;;10.40;99.90;;;;;;5083988;28;20472;-69
2022/03/17 02:32:21;;;;;;;26.13;15.87;;;10.40;99.90;;;;;;5064698;28;20039;-69
2022/03/17 02:34:47;;;;;;;24.70;15.27;;;10.40;99.90;;;;;;5065208;28;20128;-69
2022/03/17 02:37:15;;;;;;;25.50;15.20;;;10.40;99.90;;;;;;5078166;28;20046;-69
2022/03/17 02:39:42;;;;;;;30.52;17.23;;;10.40;99.90;;;;;;5084761;28;20322;-69
2022/03/17 02:42:10;;;;;;;29.13;16.98;;;10.40;99.90;;;;;;5073020;28;20436;-69
2022/03/17 02:44:39;;;;;;;29.58;16.45;;;10.40;99.90;;;;;;5083555;28;20040;-69
2022/03/17 02:47:06;;;;;;;27.85;16.02;;;10.40;99.90;;;;;;5060531;28;20033;-69
2022/03/17 02:49:32;;;;;;;29.00;16.77;;;10.40;99.90;;;;;;5077406;28;20103;-69
2022/03/17 02:51:58;;;;;;;28.48;16.92;;;10.50;99.90;;;;;;5068809;28;20048;-70
2022/03/17 02:54:23;;;;;;;29.83;16.97;;;10.40;99.90;;;;;;5066486;28;20047;-69
2022/03/17 02:56:49;;;;;;;27.93;16.77;;;10.50;99.90;;;;;;5084452;28;20332;-69
2022/03/17 02:59:15;;;;;;;28.57;16.33;;;10.50;99.90;;;;;;5061515;28;20035;-69
2022/03/17 03:01:40;;;;;;;25.75;16.45;;;10.50;99.90;;;;;;5083800;28;20032;-69
2022/03/17 03:04:06;;;;;;;28.93;16.97;;;10.50;99.90;;;;;;5089010;28;20034;-69
2022/03/17 03:06:32;;;;;;;28.63;17.20;;;10.50;99.90;;;;;;5090501;28;20473;-69
2022/03/17 03:08:59;;;;;;;27.40;16.07;;;10.50;99.90;;;;;;5066126;28;20048;-69
2022/03/17 03:11:25;;;;;;;29.85;17.17;;;10.50;99.90;;;;;;5071707;28;20036;-69
2022/03/17 03:13:51;;;;;;;30.65;17.27;;;10.50;99.90;;;;;;5088071;28;20028;-69
2022/03/17 03:16:16;;;;;;;29.20;17.10;;;10.60;99.90;;;;;;5083854;28;20082;-69
2022/03/17 03:18:44;;;;;;;29.97;17.93;;;10.60;99.90;;;;;;5077183;28;20082;-69
2022/03/17 03:21:09;;;;;;;30.08;17.55;;;10.60;99.90;;;;;;5074394;28;20310;-69
2022/03/17 03:23:40;;;;;;;35.30;19.00;;;10.60;99.90;;;;;;5082671;28;20548;-69
2022/03/17 03:26:06;;;;;;;33.05;19.05;;;10.60;99.90;;;;;;5071470;28;20063;-70
2022/03/17 03:28:31;;;;;;;31.30;18.80;;;10.60;99.90;;;;;;5089617;28;20123;-70
2022/03/17 03:30:57;;;;;;;34.40;19.23;;;10.60;99.90;;;;;;5082841;28;20044;-69
2022/03/17 03:33:22;;;;;;;34.20;17.70;;;10.60;99.90;;;;;;5078819;28;20524;-70
2022/03/17 03:38:32;;;;;;;34.97;19.67;;;10.50;99.90;;;;;;5079649;28;20085;-69
2022/03/17 03:40:59;;;;;;;38.43;21.40;;;10.40;99.90;;;;;;5057747;28;20044;-69
2022/03/17 03:43:25;;;;;;;35.28;20.73;;;10.40;99.90;;;;;;5083005;28;20562;-69
2022/03/17 03:45:51;;;;;;;36.80;20.47;;;10.40;99.90;;;;;;5084269;28;20174;-68
2022/03/17 03:48:16;;;;;;;35.80;21.27;;;10.30;99.90;;;;;;5080802;28;20049;-69
2022/03/17 03:50:42;;;;;;;33.53;20.37;;;10.20;99.90;;;;;;5065280;28;20282;-69
2022/03/17 03:53:08;;;;;;;36.47;20.83;;;10.20;99.90;;;;;;5061770;28;20098;-69
2022/03/17 03:55:33;;;;;;;40.90;22.67;;;10.20;99.90;;;;;;5062384;28;20040;-69
2022/03/17 03:58:00;;;;;;;40.20;22.00;;;10.20;99.90;;;;;;5067808;28;20040;-70
2022/03/17 04:02:58;;;;;;;41.83;23.00;;;10.10;99.90;;;;;;5064131;28;20056;-69
2022/03/17 04:05:28;;;;;;;42.03;23.35;;;10.10;99.90;;;;;;5067560;28;20040;-69
2022/03/17 04:07:56;;;;;;;41.80;23.25;;;10.00;99.90;;;;;;5084284;28;20416;-69
2022/03/17 04:10:23;;;;;;;43.17;22.45;;;10.00;99.90;;;;;;5063508;28;20036;-69
2022/03/17 04:12:49;;;;;;;;;;;10.00;99.90;;;;;;5083773;28;20128;-69
2022/03/17 04:15:14;;;;;;;40.63;21.88;;;10.00;99.90;;;;;;5080942;28;19923;-68
2022/03/17 04:17:43;;;;;;;40.28;22.77;;;9.90;99.90;;;;;;5060629;28;20044;-68
2022/03/17 04:20:11;;;;;;;44.13;21.57;;;9.90;99.90;;;;;;5084483;28;20055;-68
2022/03/17 04:22:37;;;;;;;44.47;22.75;;;9.90;99.90;;;;;;5064593;28;20398;-69
2022/03/17 04:25:04;;;;;;;41.23;22.43;;;9.90;99.90;;;;;;5079347;28;20123;-69
2022/03/17 04:27:30;;;;;;;38.58;21.45;;;9.90;99.90;;;;;;5087607;28;20047;-68
2022/03/17 04:29:55;;;;;;;36.30;19.60;;;9.90;99.90;;;;;;5083866;28;20036;-69
2022/03/17 04:32:21;;;;;;;29.20;16.07;;;9.90;99.90;;;;;;5048947;28;20063;-69
2022/03/17 04:34:47;;;;;;;17.73;9.45;;;9.90;99.90;;;;;;5075359;28;20024;-69
2022/03/17 04:37:14;;;;;;;11.10;6.30;;;9.80;99.90;;;;;;5084151;28;20273;-68
2022/03/17 04:39:39;;;;;;;9.98;5.72;;;9.60;99.90;;;;;;5067644;28;20273;-68
2022/03/17 04:42:05;;;;;;;11.80;6.80;;;9.60;99.90;;;;;;5079401;28;20047;-69
2022/03/17 04:44:31;;;;;;;9.83;5.50;;;9.40;99.90;;;;;;5078310;28;20093;-69
2022/03/17 04:46:57;;;;;;;10.63;6.03;;;9.30;99.90;;;;;;5080988;28;20081;-68
2022/03/17 04:49:23;;;;;;;9.20;5.57;;;9.20;99.90;;;;;;5084803;28;20082;-68
2022/03/17 04:51:48;;;;;;;10.10;6.23;;;9.10;99.90;;;;;;5075833;28;20036;-68
2022/03/17 04:54:14;;;;;;;11.27;5.73;;;9.00;99.90;;;;;;5085995;28;20287;-69
2022/03/17 04:56:39;;;;;;;7.70;5.57;;;8.90;99.90;;;;;;5071608;28;20421;-69
2022/03/17 04:59:05;;;;;;;8.87;5.37;;;8.90;99.90;;;;;;5085500;28;20500;-69
2022/03/17 05:01:31;;;;;;;11.90;5.00;;;8.90;99.90;;;;;;5082656;28;20086;-69
2022/03/17 05:03:56;;;;;;;10.83;5.53;;;8.80;99.90;;;;;;5080176;28;20043;-68
2022/03/17 05:06:22;;;;;;;9.90;5.17;;;8.80;99.90;;;;;;5065963;28;20044;-68
2022/03/17 05:08:48;;;;;;;9.43;5.60;;;8.70;99.90;;;;;;5089914;28;20051;-69
2022/03/17 05:11:13;;;;;;;8.52;5.32;;;8.60;99.90;;;;;;5087187;28;20040;-69
2022/03/17 05:13:39;;;;;;;12.33;5.33;;;8.60;99.90;;;;;;5066025;28;20051;-69
2022/03/17 05:16:06;;;;;;;8.43;4.88;;;8.60;99.90;;;;;;5082678;28;20044;-69
2022/03/17 05:18:32;;;;;;;14.57;6.18;;;8.50;99.90;;;;;;5080675;28;20059;-69
2022/03/17 05:20:58;;;;;;;12.82;6.60;;;8.50;99.90;;;;;;5088636;28;20055;-68
2022/03/17 05:23:24;;;;;;;12.77;7.10;;;8.50;99.90;;;;;;5088726;28;20070;-69
2022/03/17 05:25:51;;;;;;;14.70;6.90;;;8.40;99.90;;;;;;5064819;28;20042;-69
2022/03/17 05:28:17;;;;;;;19.27;7.72;;;8.40;99.90;;;;;;5067950;28;20036;-69
2022/03/17 05:30:44;;;;;;;18.33;8.27;;;8.40;99.90;;;;;;5090298;28;20035;-68
2022/03/17 05:33:11;;;;;;;;;;;8.40;99.90;;;;;;5072125;28;20040;-68
2022/03/17 05:35:41;;;;;;;13.93;8.03;;;8.30;99.90;;;;;;5075705;28;19924;-69
2022/03/17 05:38:07;;;;;;;14.38;5.93;;;8.30;99.90;;;;;;5087365;28;20380;-67
2022/03/17 05:40:33;;;;;;;15.68;6.22;;;8.30;99.90;;;;;;5084243;28;20075;-68
2022/03/17 05:43:02;;;;;;;17.85;5.90;;;8.30;99.90;;;;;;5077809;28;20047;-68
2022/03/17 05:45:29;;;;;;;16.27;4.60;;;8.20;99.90;;;;;;5087023;28;20119;-67
2022/03/17 05:47:59;;;;;;;14.38;4.78;;;8.20;99.90;;;;;;5065616;28;20443;-67
2022/03/17 05:50:28;;;;;;;15.43;4.95;;;8.20;99.90;;;;;;5082487;28;20039;-67
2022/03/17 05:52:56;;;;;;;13.45;3.72;;;8.20;99.90;;;;;;5057829;28;20493;-67
2022/03/17 05:55:24;;;;;;;13.48;4.10;;;8.20;99.90;;;;;;5083143;28;20089;-67
2022/03/17 05:57:51;;;;;;;15.70;3.78;;;8.10;99.90;;;;;;5062132;28;20079;-67
2022/03/17 06:00:23;;;;;;;10.05;3.85;;;8.10;99.90;;;;;;5079702;28;20044;-67
2022/03/17 06:02:50;;;;;;;12.63;2.90;;;8.10;99.90;;;;;;5087159;28;20086;-67
2022/03/17 06:05:15;;;;;;;11.60;3.10;;;8.10;99.90;;;;;;5083861;28;20137;-68
2022/03/17 06:07:44;;;;;;;10.57;2.93;;;8.10;99.90;;;;;;5081258;28;20116;-68
2022/03/17 06:10:11;;;;;;;10.45;3.33;;;8.10;99.90;;;;;;5079221;28;20032;-68
2022/03/17 06:12:38;;;;;;;14.85;3.63;;;8.10;99.90;;;;;;5063536;28;20078;-68
2022/03/17 06:15:06;;;;;;;9.20;2.95;;;8.10;99.90;;;;;;5080471;28;20054;-68
2022/03/17 06:17:39;;;;;;;8.88;3.38;;;8.00;99.90;;;;;;5081567;28;20052;-68
2022/03/17 06:20:05;;;;;;;14.93;3.22;;;8.00;99.90;;;;;;5085100;28;20036;-68
2022/03/17 06:22:31;;;;;;;;;;;8.00;99.90;;;;;;5086542;22;20059;-70
2022/03/17 06:24:57;;;;;;;14.40;2.90;;;8.00;99.90;;;;;;5094954;28;19915;-70
2022/03/17 06:27:22;;;;;;;5.83;2.17;;;8.00;99.90;;;;;;5084979;27;20054;-70
2022/03/17 06:29:48;;;;;;;10.23;2.50;;;8.00;99.90;;;;;;5102739;28;20080;-70
2022/03/17 06:32:13;;;;;;;9.33;2.20;;;8.00;99.90;;;;;;5094859;28;20040;-70
2022/03/17 06:34:39;;;;;;;12.83;2.60;;;8.00;99.90;;;;;;5099474;28;20024;-71
2022/03/17 06:37:04;;;;;;;10.50;2.30;;;7.90;99.90;;;;;;5099233;28;20108;-70
2022/03/17 06:39:30;;;;;;;10.03;2.40;;;8.00;99.90;;;;;;5095616;28;20059;-70
2022/03/17 06:41:56;;;;;;;10.57;2.13;;;8.00;99.90;;;;;;5095953;28;20074;-71
2022/03/17 06:44:21;;;;;;;13.17;1.60;;;7.90;99.90;;;;;;5094288;28;20773;-71
2022/03/17 06:46:47;;;;;;;9.33;1.93;;;7.90;99.90;;;;;;5098604;27;20042;-71
2022/03/17 06:49:13;;;;;;;7.63;1.97;;;7.90;99.90;;;;;;5091875;28;20040;-71
2022/03/17 06:51:38;;;;;;;16.87;2.13;;;7.90;99.90;;;;;;5094960;28;20040;-70
2022/03/17 06:54:04;;;;;;;8.70;1.60;;;8.00;99.90;;;;;;5098168;28;20057;-70
2022/03/17 06:56:32;;;;;;;11.23;1.80;;;7.90;99.90;;;;;;5094332;28;20177;-70
2022/03/17 06:58:57;;;;;;;6.60;1.83;;;7.90;99.90;;;;;;5095581;28;20492;-73
2022/03/17 07:01:23;;;;;;;12.87;1.97;;;7.90;99.90;;;;;;5098706;28;20177;-74
2022/03/17 07:03:48;;;;;;;12.97;2.07;;;7.90;99.90;;;;;;5096385;28;20055;-73
2022/03/17 07:06:14;;;;;;;14.77;2.63;;;7.90;99.90;;;;;;5087116;28;20040;-72
2022/03/17 07:08:39;;;;;;;11.63;1.93;;;8.00;99.90;;;;;;5104125;28;20129;-78
2022/03/17 07:11:05;;;;;;;9.23;1.50;;;7.90;99.90;;;;;;5097576;28;20042;-74
2022/03/17 07:13:30;;;;;;;13.13;2.27;;;7.90;99.90;;;;;;5097831;28;20076;-68
2022/03/17 07:15:56;;;;;;;10.10;1.50;;;7.90;99.90;;;;;;5102469;28;20040;-71
2022/03/17 07:18:21;;;;;;;12.30;2.43;;;7.90;99.90;;;;;;5099692;28;20105;-71
2022/03/17 07:20:47;;;;;;;14.10;1.87;;;7.90;99.90;;;;;;5100238;28;20048;-70
2022/03/17 07:23:13;;;;;;;13.47;1.73;;;7.80;99.90;;;;;;5100273;28;20051;-70
2022/03/17 07:25:38;;;;;;;12.07;1.57;;;7.80;99.90;;;;;;5101975;28;20043;-71
2022/03/17 07:28:04;;;;;;;15.20;2.87;;;7.70;99.90;;;;;;5097421;28;20206;-71
2022/03/17 07:30:31;;;;;;;14.63;2.20;;;7.70;99.90;;;;;;5104548;28;20043;-71
2022/03/17 07:32:59;;;;;;;9.20;2.25;;;7.80;99.90;;;;;;5101343;28;20074;-71
2022/03/17 07:35:29;;;;;;;8.13;1.80;;;7.70;99.90;;;;;;5093228;28;20051;-71
2022/03/17 07:37:58;;;;;;;15.73;2.80;;;7.70;99.90;;;;;;5097053;28;20079;-71
2022/03/17 07:40:24;;;;;;;13.00;1.55;;;7.80;99.90;;;;;;5097217;28;20048;-70
2022/03/17 07:42:49;;;;;;;6.40;1.20;;;7.80;99.90;;;;;;5100417;28;20116;-71
2022/03/17 07:45:15;;;;;;;6.70;1.60;;;7.70;99.90;;;;;;5095454;28;20631;-70
2022/03/17 07:47:48;;;;;;;11.43;1.50;;;7.80;99.90;;;;;;5093997;28;20412;-71
2022/03/17 07:50:14;;;;;;;16.50;1.63;;;7.70;99.90;;;;;;5098767;28;20105;-70
2022/03/17 07:52:40;;;;;;;12.60;1.45;;;7.80;99.90;;;;;;5092308;28;20073;-71
2022/03/17 07:55:06;;;;;;;12.17;3.00;;;7.70;99.90;;;;;;5090658;28;20544;-70
2022/03/17 07:57:35;;;;;;;11.93;2.20;;;7.70;99.90;;;;;;5096817;28;20117;-71
2022/03/17 08:00:01;;;;;;;15.63;2.83;;;7.80;99.90;;;;;;5080240;28;20058;-71
2022/03/17 08:02:27;;;;;;;11.32;1.83;;;7.80;99.90;;;;;;5096785;28;20031;-70
2022/03/17 08:04:53;;;;;;;19.60;2.87;;;7.80;99.90;;;;;;5101720;28;20036;-70
2022/03/17 08:07:19;;;;;;;;;;;7.80;99.90;;;;;;5104604;28;20149;-71
2022/03/17 08:09:45;;;;;;;15.48;1.67;;;7.80;99.90;;;;;;5102584;28;20370;-70
2022/03/17 08:12:11;;;;;;;8.13;1.42;;;7.80;99.90;;;;;;5100101;28;20097;-70
2022/03/17 08:14:37;;;;;;;12.85;2.30;;;7.80;99.90;;;;;;5097020;28;20032;-70
2022/03/17 08:17:03;;;;;;;10.05;2.83;;;7.80;99.90;;;;;;5102773;28;20136;-71
2022/03/17 08:19:31;;;;;;;16.40;1.60;;;7.80;99.90;;;;;;5090674;28;20483;-70
2022/03/17 08:21:57;;;;;;;21.15;2.47;;;7.80;99.90;;;;;;5100248;28;20476;-71
2022/03/17 08:24:23;;;;;;;8.70;1.52;;;7.70;99.90;;;;;;5105421;27;21437;-70
2022/03/17 08:26:48;;;;;;;10.63;1.63;;;7.70;99.90;;;;;;5104760;28;20071;-71
2022/03/17 08:29:14;;;;;;;14.20;2.03;;;7.80;99.90;;;;;;5101294;28;20544;-70
2022/03/17 08:31:40;;;;;;;9.67;1.30;;;7.80;99.90;;;;;;5108596;27;21123;-70
2022/03/17 08:34:05;;;;;;;15.77;2.38;;;7.80;99.90;;;;;;5103729;27;20040;-71
2022/03/17 08:36:31;;;;;;;12.90;2.37;;;7.70;99.90;;;;;;5105779;28;20036;-71
2022/03/17 08:38:57;;;;;;;10.97;2.70;;;7.80;99.90;;;;;;5098040;28;20083;-71
2022/03/17 08:41:23;;;;;;;12.07;2.00;;;7.90;99.90;;;;;;5100503;27;20074;-71
2022/03/17 08:43:51;;;;;;;11.60;1.65;;;7.90;99.90;;;;;;5084351;28;20040;-70
2022/03/17 08:49:22;;;;;;;20.27;2.92;;;8.00;99.90;;;;;;5095014;28;20044;-71
2022/03/17 08:52:02;;;;;;;13.73;2.53;;;8.00;99.90;;;;;;5101077;27;20042;-71
2022/03/17 08:54:30;;;;;;;15.80;2.40;;;8.00;99.90;;;;;;5103662;28;20031;-70
2022/03/17 08:56:59;;;;;;;11.20;1.70;;;7.90;99.90;;;;;;5094494;28;20055;-71
2022/03/17 08:59:30;;;;;;;9.25;1.98;;;7.90;99.90;;;;;;5096970;27;20479;-70
2022/03/17 09:01:59;;;;;;;10.50;1.58;;;7.90;99.90;;;;;;5095466;28;20248;-71
2022/03/17 09:04:26;;;;;;;8.77;1.85;;;7.90;99.90;;;;;;5104075;28;20040;-71
2022/03/17 09:06:51;;;;;;;6.72;1.48;;;8.00;99.90;;;;;;5088977;28;20066;-71
2022/03/17 09:09:17;;;;;;;11.53;1.80;;;8.10;99.90;;;;;;5102584;27;20418;-71
2022/03/17 09:11:44;;;;;;;12.35;1.30;;;8.20;99.90;;;;;;5087897;28;20042;-71
2022/03/17 09:14:10;;;;;;;18.73;1.80;;;8.40;99.90;;;;;;5102240;28;20043;-71
2022/03/17 09:16:35;;;;;;;6.70;1.50;;;8.40;99.90;;;;;;5101542;28;20039;-71
2022/03/17 09:19:01;;;;;;;9.60;1.50;;;8.60;99.90;;;;;;5090823;28;20127;-70
2022/03/17 09:21:28;;;;;;;10.50;1.77;;;8.60;99.90;;;;;;5082659;28;20047;-70
2022/03/17 09:23:54;;;;;;;12.93;1.50;;;8.70;99.90;;;;;;5089919;28;20055;-69
2022/03/17 09:26:20;;;;;;;10.05;1.40;;;8.70;99.90;;;;;;5102619;27;20044;-70
2022/03/17 09:28:46;;;;;;;12.38;1.55;;;8.80;99.90;;;;;;5099624;27;20063;-70
2022/03/17 09:31:12;;;;;;;6.80;1.50;;;8.90;99.90;;;;;;5100358;28;20047;-70
2022/03/17 09:33:37;;;;;;;7.00;1.58;;;9.00;99.90;;;;;;5101482;28;20277;-70
2022/03/17 09:36:04;;;;;;;13.63;2.03;;;9.00;99.90;;;;;;5087737;27;20059;-71
2022/03/17 09:38:29;;;;;;;6.22;1.52;;;9.10;99.90;;;;;;5093786;28;20347;-71
2022/03/17 09:40:58;;;;;;;9.73;1.40;;;9.10;99.90;;;;;;5102331;28;20032;-70
2022/03/17 09:43:31;;;;;;;7.22;1.17;;;9.20;99.90;;;;;;5098183;28;20032;-71
2022/03/17 09:46:04;;;;;;;7.85;1.65;;;9.20;99.90;;;;;;5095487;28;20382;-70
2022/03/17 09:48:30;;;;;;;8.23;2.35;;;9.30;99.90;;;;;;5100582;28;20068;-69
2022/03/17 09:50:59;;;;;;;11.27;2.73;;;9.20;99.90;;;;;;5103640;28;20074;-71
2022/03/17 09:53:26;;;;;;;5.40;1.20;;;9.20;99.90;;;;;;5095350;28;20622;-70
2022/03/17 09:55:52;;;;;;;10.57;1.65;;;9.20;99.90;;;;;;5099900;28;20113;-70
2022/03/17 09:58:19;;;;;;;8.48;1.63;;;9.30;99.90;;;;;;5092950;28;20412;-70
2022/03/17 10:00:47;;;;;;;;;;;9.40;99.90;;;;;;5088915;27;20459;-70
2022/03/17 10:03:15;;;;;;;10.43;1.77;;;9.50;99.90;;;;;;5086792;28;19949;-70
2022/03/17 10:05:43;;;;;;;13.82;1.88;;;9.60;99.90;;;;;;5089019;28;20039;-70
2022/03/17 10:08:09;;;;;;;10.10;1.80;;;9.70;99.90;;;;;;5091976;27;20059;-70
2022/03/17 10:10:39;;;;;;;9.07;1.60;;;9.60;99.90;;;;;;5101920;27;20082;-70
2022/03/17 10:13:17;;;;;;;10.02;1.35;;;9.70;99.90;;;;;;5094719;28;20359;-70
2022/03/17 10:15:45;;;;;;;18.38;3.58;;;9.80;99.90;;;;;;5089502;28;20146;-70
2022/03/17 10:18:19;;;;;;;4.65;1.30;;;9.90;99.90;;;;;;5104121;27;20104;-71
2022/03/17 10:20:46;;;;;;;6.35;1.67;;;10.00;99.90;;;;;;5094686;28;20510;-70
2022/03/17 10:23:12;;;;;;;9.80;1.42;;;10.10;99.90;;;;;;5101808;28;20070;-70
2022/03/17 10:25:37;;;;;;;9.73;1.80;;;10.10;99.90;;;;;;5092814;28;20048;-69
2022/03/17 10:28:04;;;;;;;12.23;1.57;;;10.10;99.90;;;;;;5105667;27;20046;-70
2022/03/17 10:30:34;;;;;;;10.80;1.77;;;10.00;99.90;;;;;;5096668;28;20051;-70
2022/03/17 10:33:03;;;;;;;9.40;1.60;;;10.00;99.90;;;;;;5095167;28;20039;-70
2022/03/17 10:35:36;;;;;;;10.93;1.55;;;10.00;99.90;;;;;;5100182;27;20109;-69
2022/03/17 10:38:16;;;;;;;14.07;1.67;;;10.10;99.90;;;;;;5094282;28;20393;-70
2022/03/17 10:40:43;;;;;;;8.95;2.35;;;10.10;99.90;;;;;;5099665;28;20041;-69
2022/03/17 10:43:22;;;;;;;8.20;2.63;;;10.20;99.90;;;;;;5092376;28;20031;-70
2022/03/17 10:46:02;;;;;;;9.23;2.08;;;10.20;99.90;;;;;;5101718;28;20059;-70
2022/03/17 10:48:28;;;;;;;12.82;2.08;;;10.30;99.90;;;;;;5100697;28;20032;-71
2022/03/17 10:50:53;;;;;;;22.77;2.13;;;10.50;99.90;;;;;;5097680;27;20093;-70
2022/03/17 10:53:29;;;;;;;9.07;1.80;;;10.60;95.00;;;;;;5099924;28;20054;-71
2022/03/17 10:56:12;;;;;;;11.13;1.63;;;10.70;93.60;;;;;;5104572;28;20439;-71
2022/03/17 10:58:43;;;;;;;11.85;2.50;;;10.60;93.40;;;;;;5097475;28;20035;-70
2022/03/17 11:01:09;;;;;;;9.52;1.80;;;10.50;94.50;;;;;;5097134;27;20607;-70
2022/03/17 11:03:35;;;;;;;9.85;1.58;;;10.40;93.60;;;;;;5103983;28;20404;-71
2022/03/17 11:06:03;;;;;;;11.00;1.48;;;10.30;95.50;;;;;;5102771;28;20074;-70
2022/03/17 11:08:30;;;;;;;9.93;1.33;;;10.30;94.40;;;;;;5100113;28;20138;-70
2022/03/17 11:10:57;;;;;;;9.68;1.67;;;10.40;95.70;;;;;;5101885;28;20057;-70
2022/03/17 11:13:23;;;;;;;14.63;2.03;;;10.50;94.70;;;;;;5101138;28;20071;-70
2022/03/17 11:16:06;;;;;;;16.63;2.40;;;10.60;96.00;;;;;;5103692;28;20105;-70
2022/03/17 11:18:36;;;;;;;8.93;1.65;;;10.70;93.20;;;;;;5098923;28;20314;-70
2022/03/17 11:21:29;;;;;;;10.18;1.20;;;10.80;92.30;;;;;;5100284;28;20380;-70
2022/03/17 11:24:04;;;;;;;6.18;1.55;;;10.90;90.40;;;;;;5091216;28;20062;-70
2022/03/17 11:26:37;;;;;;;13.55;2.28;;;11.00;91.30;;;;;;5079476;28;20032;-70
2022/03/17 11:29:12;;;;;;;10.80;1.63;;;11.10;89.80;;;;;;5091003;27;20499;-70
2022/03/17 11:32:00;;;;;;;11.77;1.92;;;11.20;92.30;;;;;;5091617;28;20066;-70
2022/03/17 11:34:39;;;;;;;10.15;2.38;;;11.30;91.40;;;;;;5092426;28;20546;-70
2022/03/17 11:37:26;;;;;;;18.55;2.85;;;11.40;90.90;;;;;;5091620;28;20061;-70
2022/03/17 11:40:06;;;;;;;12.00;2.72;;;11.40;84.70;;;;;;5093258;28;20044;-71
2022/03/17 11:42:34;;;;;;;9.23;1.73;;;11.40;87.00;;;;;;5095464;28;20071;-70
2022/03/17 11:45:15;;;;;;;7.78;1.40;;;11.20;87.40;;;;;;5087246;28;20040;-71
2022/03/17 11:47:47;;;;;;;11.32;1.85;;;11.20;85.70;;;;;;5094011;28;20048;-71
2022/03/17 11:50:32;;;;;;;12.30;1.98;;;11.20;86.30;;;;;;5099664;28;20499;-69
2022/03/17 11:52:59;;;;;;;8.07;1.73;;;11.20;84.90;;;;;;5115776;28;20065;-69
2022/03/17 11:55:35;;;;;;;14.48;2.47;;;11.10;85.00;;;;;;5096991;28;20048;-69
2022/03/17 11:58:24;;;;;;;15.00;3.03;;;11.10;83.30;;;;;;5100894;28;20047;-69
2022/03/17 12:00:52;;;;;;;8.80;2.00;;;11.10;89.00;;;;;;5102684;28;20036;-69
2022/03/17 12:03:31;;;;;;;10.70;1.63;;;11.20;86.60;;;;;;5100787;28;20051;-69
2022/03/17 12:06:17;;;;;;;9.35;1.92;;;11.30;80.00;;;;;;5104043;28;20043;-69
2022/03/17 12:08:58;;;;;;;11.93;1.80;;;11.40;79.60;;;;;;5103039;28;20089;-69
2022/03/17 12:11:25;;;;;;;8.27;1.55;;;11.50;83.80;;;;;;5104770;28;20115;-70
2022/03/17 12:14:19;;;;;;;17.15;2.72;;;11.60;87.10;;;;;;5096993;27;20111;-70
2022/03/17 12:16:56;;;;;;;11.30;1.75;;;11.60;79.70;;;;;;5102555;27;20064;-69
2022/03/17 12:19:29;;;;;;;12.38;2.33;;;11.60;82.90;;;;;;5102936;27;20047;-69
2022/03/17 12:21:58;;;;;;;23.38;2.55;;;11.60;81.70;;;;;;5114942;22;20479;-71
2022/03/17 12:24:35;;;;;;;6.75;1.75;;;11.70;78.60;;;;;;5049602;28;20041;-71
2022/03/17 12:27:33;;;;;;;11.20;1.40;;;11.70;76.10;;;;;;5044883;28;20055;-68
2022/03/17 12:30:01;;;;;;;9.90;2.03;;;11.80;77.20;;;;;;5064511;28;20130;-70
2022/03/17 12:32:34;;;;;;;7.68;1.60;;;11.70;79.70;;;;;;5050281;28;20044;-72
2022/03/17 12:35:01;;;;;;;7.95;1.60;;;11.50;76.00;;;;;;5048317;28;20047;-70
2022/03/17 12:37:31;;;;;;;11.05;2.00;;;11.40;80.50;;;;;;5058007;28;20243;-70
2022/03/17 12:40:00;;;;;;;8.25;1.98;;;11.40;77.70;;;;;;5043082;28;20798;-70
2022/03/17 12:42:28;;;;;;;4.80;1.20;;;11.50;79.80;;;;;;5045052;28;20056;-69
2022/03/17 12:44:56;;;;;;;9.05;1.65;;;11.60;75.80;;;;;;5049322;28;20080;-71
2022/03/17 12:47:24;;;;;;;9.73;1.35;;;11.60;75.30;;;;;;5048842;28;20068;-70
2022/03/17 12:49:50;;;;;;;13.57;2.05;;;11.70;75.80;;;;;;5064927;28;20033;-69
2022/03/17 12:52:20;;;;;;;9.18;1.75;;;11.90;75.20;;;;;;5046572;28;20063;-70
2022/03/17 12:54:49;;;;;;;9.50;1.35;;;12.00;74.00;;;;;;5071430;28;20039;-73
2022/03/17 12:57:15;;;;;;;9.57;1.35;;;12.00;73.10;;;;;;5066021;28;20114;-74
2022/03/17 12:59:41;;;;;;;13.53;1.33;;;12.00;70.80;;;;;;5045824;28;20072;-74
2022/03/17 13:02:07;;;;;;;6.57;1.20;;;12.00;69.90;;;;;;5048789;28;20040;-74
2022/03/17 13:04:39;;;;;;;9.07;2.47;;;12.00;67.80;;;;;;5036911;28;20044;-69